Terminal Aerodrome Forecast
Issued by NWS Albany, NY

Current Version | Previous Version | Text Only | Print | Product List | Glossary On
Versions: 1 2 3 4 5 6 7 8 9 10 11 12 13 14 15 16
000
FTUS41 KALY 110530
TAFPOU
TAF
KPOU 110530Z 1106/1206 00000KT P6SM SCT070
     FM111200 VRB03KT P6SM BKN250
     FM111500 32005KT P6SM SCT050 SCT100
     FM112000 34006KT P6SM SCT050 BKN100=

USA.gov is the U.S. government's official web portal to all federal, state and local government web resources and services.